Terminal Aerodrome Forecast
Issued by NWS Cleveland, OH

Home | Current Version | Previous Version | Graphics & Text | Print | Product List | Glossary On
Versions: 1 2 3 4 5 6 7 8 9 10 11 12 13 14 15 16 17 18 19 20 21 22 23 24 25
000
FTUS41 KCLE 262321
TAFMFD
TAF
KMFD 262321Z 2700/2724 36012KT P6SM OVC009
     FM270300 03010KT P6SM OVC015
     FM271200 06010KT P6SM SKC
     FM271900 03010KT P6SM BKN100
     FM272000 03008KT P6SM OVC035=

USA.gov is the U.S. government's official web portal to all federal, state and local government web resources and services.